sensor_id;sensor_type;location;lat;lon;timestamp;temperature;humidity
39401;SHT31;75540;50.000;7.360;2024-01-10T00:01:37;-6.68;58.00
39401;SHT31;75540;50.000;7.360;2024-01-10T00:04:07;-6.64;58.07
39401;SHT31;75540;50.000;7.360;2024-01-10T00:06:35;-6.69;58.08
39401;SHT31;75540;50.000;7.360;2024-01-10T00:09:03;-6.72;57.94
39401;SHT31;75540;50.000;7.360;2024-01-10T00:11:33;-6.78;57.98
39401;SHT31;75540;50.000;7.360;2024-01-10T00:14:02;-6.72;57.86
39401;SHT31;75540;50.000;7.360;2024-01-10T00:16:30;-6.64;57.92
39401;SHT31;75540;50.000;7.360;2024-01-10T00:18:58;-6.68;57.45
39401;SHT31;75540;50.000;7.360;2024-01-10T00:21:27;-6.71;57.76
39401;SHT31;75540;50.000;7.360;2024-01-10T00:23:56;-6.69;57.51
39401;SHT31;75540;50.000;7.360;2024-01-10T00:26:25;-6.68;58.19
39401;SHT31;75540;50.000;7.360;2024-01-10T00:28:55;-6.72;57.81
39401;SHT31;75540;50.000;7.360;2024-01-10T00:31:23;-6.72;58.59
39401;SHT31;75540;50.000;7.360;2024-01-10T00:33:51;-6.74;58.97
39401;SHT31;75540;50.000;7.360;2024-01-10T00:36:20;-6.87;59.10
39401;SHT31;75540;50.000;7.360;2024-01-10T00:38:48;-6.87;59.05
39401;SHT31;75540;50.000;7.360;2024-01-10T00:41:16;-6.92;59.35
39401;SHT31;75540;50.000;7.360;2024-01-10T00:43:44;-7.01;59.22
39401;SHT31;75540;50.000;7.360;2024-01-10T00:46:14;-7.01;59.64
39401;SHT31;75540;50.000;7.360;2024-01-10T00:48:42;-7.02;59.78
39401;SHT31;75540;50.000;7.360;2024-01-10T00:51:10;-7.06;60.06
39401;SHT31;75540;50.000;7.360;2024-01-10T00:53:38;-7.11;60.10
39401;SHT31;75540;50.000;7.360;2024-01-10T00:56:07;-7.08;59.96
39401;SHT31;75540;50.000;7.360;2024-01-10T00:58:35;-7.11;60.31
39401;SHT31;75540;50.000;7.360;2024-01-10T01:01:04;-7.05;60.79
39401;SHT31;75540;50.000;7.360;2024-01-10T01:03:33;-7.06;60.70
39401;SHT31;75540;50.000;7.360;2024-01-10T01:06:03;-7.01;60.57
39401;SHT31;75540;50.000;7.360;2024-01-10T01:08:31;-7.11;60.62
39401;SHT31;75540;50.000;7.360;2024-01-10T01:11:00;-7.08;60.70
39401;SHT31;75540;50.000;7.360;2024-01-10T01:13:31;-7.09;60.73
39401;SHT31;75540;50.000;7.360;2024-01-10T01:15:59;-7.19;60.71
39401;SHT31;75540;50.000;7.360;2024-01-10T01:18:28;-7.15;60.89
39401;SHT31;75540;50.000;7.360;2024-01-10T01:20:58;-6.96;60.65
39401;SHT31;75540;50.000;7.360;2024-01-10T01:23:26;-6.91;60.22
39401;SHT31;75540;50.000;7.360;2024-01-10T01:25:54;-6.96;59.61
39401;SHT31;75540;50.000;7.360;2024-01-10T01:28:22;-7.06;60.38
39401;SHT31;75540;50.000;7.360;2024-01-10T01:30:50;-7.01;60.28
39401;SHT31;75540;50.000;7.360;2024-01-10T01:33:18;-6.91;60.44
39401;SHT31;75540;50.000;7.360;2024-01-10T01:35:47;-6.87;60.96
39401;SHT31;75540;50.000;7.360;2024-01-10T01:38:16;-6.92;61.28
39401;SHT31;75540;50.000;7.360;2024-01-10T01:40:45;-6.81;60.40
39401;SHT31;75540;50.000;7.360;2024-01-10T01:43:19;-6.65;59.78
39401;SHT31;75540;50.000;7.360;2024-01-10T01:45:47;-6.68;60.51
39401;SHT31;75540;50.000;7.360;2024-01-10T01:48:18;-6.78;61.85
39401;SHT31;75540;50.000;7.360;2024-01-10T01:50:49;-7.15;63.44
39401;SHT31;75540;50.000;7.360;2024-01-10T01:53:20;-7.23;63.82
39401;SHT31;75540;50.000;7.360;2024-01-10T01:55:48;-7.24;64.43
39401;SHT31;75540;50.000;7.360;2024-01-10T01:58:17;-7.23;64.43
39401;SHT31;75540;50.000;7.360;2024-01-10T02:00:46;-7.16;64.26
39401;SHT31;75540;50.000;7.360;2024-01-10T02:03:14;-7.19;64.11
39401;SHT31;75540;50.000;7.360;2024-01-10T02:05:42;-7.12;63.44
39401;SHT31;75540;50.000;7.360;2024-01-10T02:08:10;-7.09;63.24
39401;SHT31;75540;50.000;7.360;2024-01-10T02:10:40;-7.08;63.30
39401;SHT31;75540;50.000;7.360;2024-01-10T02:13:08;-7.11;63.33
39401;SHT31;75540;50.000;7.360;2024-01-10T02:15:38;-7.11;62.98
39401;SHT31;75540;50.000;7.360;2024-01-10T02:18:06;-7.19;62.88
39401;SHT31;75540;50.000;7.360;2024-01-10T02:20:37;-7.18;63.12
39401;SHT31;75540;50.000;7.360;2024-01-10T02:23:05;-7.16;62.96
39401;SHT31;75540;50.000;7.360;2024-01-10T02:25:35;-7.36;63.03
39401;SHT31;75540;50.000;7.360;2024-01-10T02:28:03;-7.48;63.27
39401;SHT31;75540;50.000;7.360;2024-01-10T02:30:32;-7.54;63.96
39401;SHT31;75540;50.000;7.360;2024-01-10T02:33:00;-7.50;63.99
39401;SHT31;75540;50.000;7.360;2024-01-10T02:35:28;-7.56;64.28
39401;SHT31;75540;50.000;7.360;2024-01-10T02:37:59;-7.51;64.38
39401;SHT31;75540;50.000;7.360;2024-01-10T02:40:28;-7.48;64.11
39401;SHT31;75540;50.000;7.360;2024-01-10T02:42:57;-7.30;63.85
39401;SHT31;75540;50.000;7.360;2024-01-10T02:45:25;-7.15;62.79
39401;SHT31;75540;50.000;7.360;2024-01-10T02:47:54;-7.19;61.90
39401;SHT31;75540;50.000;7.360;2024-01-10T02:50:22;-7.15;61.99
39401;SHT31;75540;50.000;7.360;2024-01-10T02:52:50;-7.12;61.64
39401;SHT31;75540;50.000;7.360;2024-01-10T02:55:18;-7.08;60.91
39401;SHT31;75540;50.000;7.360;2024-01-10T02:57:46;-7.09;61.00
39401;SHT31;75540;50.000;7.360;2024-01-10T03:00:16;-7.05;61.14
39401;SHT31;75540;50.000;7.360;2024-01-10T03:02:44;-6.98;60.71
39401;SHT31;75540;50.000;7.360;2024-01-10T03:05:13;-7.02;60.85
39401;SHT31;75540;50.000;7.360;2024-01-10T03:07:41;-6.99;60.57
39401;SHT31;75540;50.000;7.360;2024-01-10T03:10:09;-6.98;60.84
39401;SHT31;75540;50.000;7.360;2024-01-10T03:12:37;-6.89;60.53
39401;SHT31;75540;50.000;7.360;2024-01-10T03:15:08;-6.91;60.40
39401;SHT31;75540;50.000;7.360;2024-01-10T03:17:38;-6.93;60.24
39401;SHT31;75540;50.000;7.360;2024-01-10T03:20:07;-6.92;60.06
39401;SHT31;75540;50.000;7.360;2024-01-10T03:22:36;-6.96;60.95
39401;SHT31;75540;50.000;7.360;2024-01-10T03:25:05;-6.93;60.86
39401;SHT31;75540;50.000;7.360;2024-01-10T03:27:33;-7.01;61.32
39401;SHT31;75540;50.000;7.360;2024-01-10T03:30:02;-7.09;61.32
39401;SHT31;75540;50.000;7.360;2024-01-10T03:32:30;-6.92;61.26
39401;SHT31;75540;50.000;7.360;2024-01-10T03:35:00;-6.98;60.75
39401;SHT31;75540;50.000;7.360;2024-01-10T03:37:28;-6.89;60.53
39401;SHT31;75540;50.000;7.360;2024-01-10T03:39:56;-6.92;60.34
39401;SHT31;75540;50.000;7.360;2024-01-10T03:42:26;-6.89;60.07
39401;SHT31;75540;50.000;7.360;2024-01-10T03:44:54;-6.93;60.31
39401;SHT31;75540;50.000;7.360;2024-01-10T03:47:22;-6.85;60.33
39401;SHT31;75540;50.000;7.360;2024-01-10T03:49:51;-6.87;59.66
39401;SHT31;75540;50.000;7.360;2024-01-10T03:52:20;-6.78;59.33
39401;SHT31;75540;50.000;7.360;2024-01-10T03:54:48;-6.61;59.11
39401;SHT31;75540;50.000;7.360;2024-01-10T03:57:17;-6.74;59.21
39401;SHT31;75540;50.000;7.360;2024-01-10T03:59:45;-6.79;59.62
39401;SHT31;75540;50.000;7.360;2024-01-10T04:02:13;-6.82;60.07
39401;SHT31;75540;50.000;7.360;2024-01-10T04:04:42;-6.78;59.82
39401;SHT31;75540;50.000;7.360;2024-01-10T04:07:10;-6.78;60.18
39401;SHT31;75540;50.000;7.360;2024-01-10T04:09:39;-6.82;60.64
39401;SHT31;75540;50.000;7.360;2024-01-10T04:12:08;-6.79;60.38
39401;SHT31;75540;50.000;7.360;2024-01-10T04:14:36;-6.88;60.62
39401;SHT31;75540;50.000;7.360;2024-01-10T04:17:04;-6.84;60.41
39401;SHT31;75540;50.000;7.360;2024-01-10T04:19:33;-6.77;60.46
39401;SHT31;75540;50.000;7.360;2024-01-10T04:22:01;-6.78;60.56
39401;SHT31;75540;50.000;7.360;2024-01-10T04:24:29;-6.74;60.33
39401;SHT31;75540;50.000;7.360;2024-01-10T04:26:58;-6.68;59.93
39401;SHT31;75540;50.000;7.360;2024-01-10T04:29:26;-6.55;59.67
39401;SHT31;75540;50.000;7.360;2024-01-10T04:31:55;-6.67;59.61
39401;SHT31;75540;50.000;7.360;2024-01-10T04:34:23;-6.65;59.91
39401;SHT31;75540;50.000;7.360;2024-01-10T04:36:51;-6.65;60.13
39401;SHT31;75540;50.000;7.360;2024-01-10T04:39:19;-6.64;60.10
39401;SHT31;75540;50.000;7.360;2024-01-10T04:41:48;-6.55;58.99
39401;SHT31;75540;50.000;7.360;2024-01-10T04:44:17;-6.51;58.49
39401;SHT31;75540;50.000;7.360;2024-01-10T04:46:46;-6.49;58.57
39401;SHT31;75540;50.000;7.360;2024-01-10T04:49:14;-6.54;59.25
39401;SHT31;75540;50.000;7.360;2024-01-10T04:51:42;-6.55;58.85
39401;SHT31;75540;50.000;7.360;2024-01-10T04:54:10;-6.51;58.66
39401;SHT31;75540;50.000;7.360;2024-01-10T04:56:39;-6.49;59.06
39401;SHT31;75540;50.000;7.360;2024-01-10T04:59:07;-6.47;58.69
39401;SHT31;75540;50.000;7.360;2024-01-10T05:01:37;-6.42;58.54
39401;SHT31;75540;50.000;7.360;2024-01-10T05:04:05;-6.47;58.67
39401;SHT31;75540;50.000;7.360;2024-01-10T05:06:33;-6.36;58.00
39401;SHT31;75540;50.000;7.360;2024-01-10T05:09:02;-6.36;57.83
39401;SHT31;75540;50.000;7.360;2024-01-10T05:11:31;-6.30;57.81
39401;SHT31;75540;50.000;7.360;2024-01-10T05:13:59;-6.24;57.37
39401;SHT31;75540;50.000;7.360;2024-01-10T05:16:27;-6.23;57.52
39401;SHT31;75540;50.000;7.360;2024-01-10T05:19:00;-6.20;57.64
39401;SHT31;75540;50.000;7.360;2024-01-10T05:21:30;-6.16;57.53
39401;SHT31;75540;50.000;7.360;2024-01-10T05:23:58;-6.14;57.44
39401;SHT31;75540;50.000;7.360;2024-01-10T05:26:26;-6.16;57.29
39401;SHT31;75540;50.000;7.360;2024-01-10T05:28:54;-6.14;56.82
39401;SHT31;75540;50.000;7.360;2024-01-10T05:31:23;-6.17;57.60
39401;SHT31;75540;50.000;7.360;2024-01-10T05:33:51;-6.18;57.84
39401;SHT31;75540;50.000;7.360;2024-01-10T05:36:22;-6.18;58.00
39401;SHT31;75540;50.000;7.360;2024-01-10T05:38:51;-6.21;58.45
39401;SHT31;75540;50.000;7.360;2024-01-10T05:41:20;-6.20;57.94
39401;SHT31;75540;50.000;7.360;2024-01-10T05:43:48;-6.18;58.39
39401;SHT31;75540;50.000;7.360;2024-01-10T05:46:16;-6.16;57.87
39401;SHT31;75540;50.000;7.360;2024-01-10T05:48:44;-6.16;58.21
39401;SHT31;75540;50.000;7.360;2024-01-10T05:51:13;-6.20;58.31
39401;SHT31;75540;50.000;7.360;2024-01-10T05:53:42;-6.16;58.83
39401;SHT31;75540;50.000;7.360;2024-01-10T05:56:10;-6.18;59.12
39401;SHT31;75540;50.000;7.360;2024-01-10T05:58:39;-6.20;58.98
39401;SHT31;75540;50.000;7.360;2024-01-10T06:01:08;-6.11;59.04
39401;SHT31;75540;50.000;7.360;2024-01-10T06:03:36;-6.17;58.83
39401;SHT31;75540;50.000;7.360;2024-01-10T06:06:05;-6.17;58.88
39401;SHT31;75540;50.000;7.360;2024-01-10T06:08:34;-6.13;58.58
39401;SHT31;75540;50.000;7.360;2024-01-10T06:11:04;-6.09;58.68
39401;SHT31;75540;50.000;7.360;2024-01-10T06:13:35;-6.07;58.84
39401;SHT31;75540;50.000;7.360;2024-01-10T06:16:04;-6.04;58.70
39401;SHT31;75540;50.000;7.360;2024-01-10T06:18:32;-5.99;57.83
39401;SHT31;75540;50.000;7.360;2024-01-10T06:21:01;-5.93;57.71
39401;SHT31;75540;50.000;7.360;2024-01-10T06:23:30;-5.89;56.94
39401;SHT31;75540;50.000;7.360;2024-01-10T06:25:58;-5.89;57.13
39401;SHT31;75540;50.000;7.360;2024-01-10T06:28:28;-5.76;57.10
39401;SHT31;75540;50.000;7.360;2024-01-10T06:30:56;-5.82;57.36
39401;SHT31;75540;50.000;7.360;2024-01-10T06:33:24;-5.79;57.75
39401;SHT31;75540;50.000;7.360;2024-01-10T06:35:53;-5.78;57.40
39401;SHT31;75540;50.000;7.360;2024-01-10T06:38:21;-5.82;57.09
39401;SHT31;75540;50.000;7.360;2024-01-10T06:40:50;-5.87;57.00
39401;SHT31;75540;50.000;7.360;2024-01-10T06:43:18;-5.89;57.19
39401;SHT31;75540;50.000;7.360;2024-01-10T06:45:48;-5.89;57.06
39401;SHT31;75540;50.000;7.360;2024-01-10T06:48:16;-5.89;57.06
39401;SHT31;75540;50.000;7.360;2024-01-10T06:50:45;-5.93;57.14
39401;SHT31;75540;50.000;7.360;2024-01-10T06:53:14;-5.92;56.72
39401;SHT31;75540;50.000;7.360;2024-01-10T06:55:45;-5.92;57.31
39401;SHT31;75540;50.000;7.360;2024-01-10T06:58:13;-5.92;57.13
39401;SHT31;75540;50.000;7.360;2024-01-10T07:00:42;-5.87;56.90
39401;SHT31;75540;50.000;7.360;2024-01-10T07:03:11;-5.92;57.36
39401;SHT31;75540;50.000;7.360;2024-01-10T07:05:40;-5.93;57.46
39401;SHT31;75540;50.000;7.360;2024-01-10T07:08:08;-5.90;57.47
39401;SHT31;75540;50.000;7.360;2024-01-10T07:10:36;-5.92;57.69
39401;SHT31;75540;50.000;7.360;2024-01-10T07:13:05;-5.93;57.25
39401;SHT31;75540;50.000;7.360;2024-01-10T07:15:33;-5.90;57.00
39401;SHT31;75540;50.000;7.360;2024-01-10T07:18:02;-5.81;57.00
39401;SHT31;75540;50.000;7.360;2024-01-10T07:20:32;-5.81;57.01
39401;SHT31;75540;50.000;7.360;2024-01-10T07:23:00;-5.73;56.37
39401;SHT31;75540;50.000;7.360;2024-01-10T07:25:29;-5.79;56.67
39401;SHT31;75540;50.000;7.360;2024-01-10T07:27:58;-5.81;56.08
39401;SHT31;75540;50.000;7.360;2024-01-10T07:30:27;-5.82;56.12
39401;SHT31;75540;50.000;7.360;2024-01-10T07:32:59;-5.76;56.03
39401;SHT31;75540;50.000;7.360;2024-01-10T07:35:28;-5.78;55.56
39401;SHT31;75540;50.000;7.360;2024-01-10T07:37:58;-5.73;55.46
39401;SHT31;75540;50.000;7.360;2024-01-10T07:40:26;-5.75;55.53
39401;SHT31;75540;50.000;7.360;2024-01-10T07:42:54;-5.76;56.05
39401;SHT31;75540;50.000;7.360;2024-01-10T07:45:23;-5.71;55.46
39401;SHT31;75540;50.000;7.360;2024-01-10T07:47:51;-5.78;55.80
39401;SHT31;75540;50.000;7.360;2024-01-10T07:50:20;-5.71;55.69
39401;SHT31;75540;50.000;7.360;2024-01-10T07:52:53;-5.73;55.53
39401;SHT31;75540;50.000;7.360;2024-01-10T07:55:23;-5.76;56.16
39401;SHT31;75540;50.000;7.360;2024-01-10T07:57:51;-5.78;56.84
39401;SHT31;75540;50.000;7.360;2024-01-10T08:00:20;-5.73;56.22
39401;SHT31;75540;50.000;7.360;2024-01-10T08:02:49;-5.73;56.59
39401;SHT31;75540;50.000;7.360;2024-01-10T08:05:17;-5.66;57.16
39401;SHT31;75540;50.000;7.360;2024-01-10T08:07:48;-5.71;57.38
39401;SHT31;75540;50.000;7.360;2024-01-10T08:10:16;-5.63;56.90
39401;SHT31;75540;50.000;7.360;2024-01-10T08:12:47;-5.63;57.46
39401;SHT31;75540;50.000;7.360;2024-01-10T08:15:16;-5.61;56.37
39401;SHT31;75540;50.000;7.360;2024-01-10T08:17:45;-5.52;56.30
39401;SHT31;75540;50.000;7.360;2024-01-10T08:20:18;-5.47;56.43
39401;SHT31;75540;50.000;7.360;2024-01-10T08:22:48;-5.47;55.85
39401;SHT31;75540;50.000;7.360;2024-01-10T08:25:17;-5.42;56.32
39401;SHT31;75540;50.000;7.360;2024-01-10T08:27:47;-5.38;56.21
39401;SHT31;75540;50.000;7.360;2024-01-10T08:30:15;-5.39;55.59
39401;SHT31;75540;50.000;7.360;2024-01-10T08:32:44;-5.38;55.56
39401;SHT31;75540;50.000;7.360;2024-01-10T08:35:12;-5.36;55.25
39401;SHT31;75540;50.000;7.360;2024-01-10T08:37:40;-5.32;55.54
39401;SHT31;75540;50.000;7.360;2024-01-10T08:40:10;-5.35;55.58
39401;SHT31;75540;50.000;7.360;2024-01-10T08:42:39;-5.30;56.08
39401;SHT31;75540;50.000;7.360;2024-01-10T08:45:09;-5.30;55.73
39401;SHT31;75540;50.000;7.360;2024-01-10T08:47:38;-5.21;55.94
39401;SHT31;75540;50.000;7.360;2024-01-10T08:50:07;-5.17;56.12
39401;SHT31;75540;50.000;7.360;2024-01-10T08:52:36;-5.11;55.28
39401;SHT31;75540;50.000;7.360;2024-01-10T08:55:05;-5.22;55.67
39401;SHT31;75540;50.000;7.360;2024-01-10T08:57:37;-5.17;55.22
39401;SHT31;75540;50.000;7.360;2024-01-10T09:00:06;-5.21;55.56
39401;SHT31;75540;50.000;7.360;2024-01-10T09:02:40;-5.25;55.15
39401;SHT31;75540;50.000;7.360;2024-01-10T09:05:08;-5.24;55.39
39401;SHT31;75540;50.000;7.360;2024-01-10T09:07:37;-5.30;55.13
39401;SHT31;75540;50.000;7.360;2024-01-10T09:10:07;-5.30;55.14
39401;SHT31;75540;50.000;7.360;2024-01-10T09:12:36;-5.21;55.35
39401;SHT31;75540;50.000;7.360;2024-01-10T09:15:05;-5.05;55.74
39401;SHT31;75540;50.000;7.360;2024-01-10T09:17:35;-5.17;55.44
39401;SHT31;75540;50.000;7.360;2024-01-10T09:20:05;-5.04;55.11
39401;SHT31;75540;50.000;7.360;2024-01-10T09:22:33;-4.96;54.53
39401;SHT31;75540;50.000;7.360;2024-01-10T09:25:02;-4.80;54.05
39401;SHT31;75540;50.000;7.360;2024-01-10T09:27:33;-4.50;54.38
39401;SHT31;75540;50.000;7.360;2024-01-10T09:30:02;-4.32;53.70
39401;SHT31;75540;50.000;7.360;2024-01-10T09:32:33;-4.18;53.29
39401;SHT31;75540;50.000;7.360;2024-01-10T09:35:01;-3.98;52.97
39401;SHT31;75540;50.000;7.360;2024-01-10T09:37:31;-3.70;51.81
39401;SHT31;75540;50.000;7.360;2024-01-10T09:40:00;-3.67;51.68
39401;SHT31;75540;50.000;7.360;2024-01-10T09:42:29;-3.19;50.74
39401;SHT31;75540;50.000;7.360;2024-01-10T09:45:00;-2.89;49.24
39401;SHT31;75540;50.000;7.360;2024-01-10T09:47:31;-2.93;49.02
39401;SHT31;75540;50.000;7.360;2024-01-10T09:50:00;-2.79;49.49
39401;SHT31;75540;50.000;7.360;2024-01-10T09:52:41;-2.17;48.16
39401;SHT31;75540;50.000;7.360;2024-01-10T09:55:09;-2.17;47.57
39401;SHT31;75540;50.000;7.360;2024-01-10T09:57:40;-2.06;46.61
39401;SHT31;75540;50.000;7.360;2024-01-10T10:00:10;-2.55;47.83
39401;SHT31;75540;50.000;7.360;2024-01-10T10:02:39;-2.45;48.17
39401;SHT31;75540;50.000;7.360;2024-01-10T10:05:13;-1.90;47.93
39401;SHT31;75540;50.000;7.360;2024-01-10T10:07:47;-2.14;46.96
39401;SHT31;75540;50.000;7.360;2024-01-10T10:10:17;-2.17;47.47
39401;SHT31;75540;50.000;7.360;2024-01-10T10:12:46;-2.04;47.86
39401;SHT31;75540;50.000;7.360;2024-01-10T10:15:16;-1.82;47.75
39401;SHT31;75540;50.000;7.360;2024-01-10T10:17:46;-1.89;48.27
39401;SHT31;75540;50.000;7.360;2024-01-10T10:20:20;-2.89;49.81
39401;SHT31;75540;50.000;7.360;2024-01-10T10:23:00;-2.92;50.80
39401;SHT31;75540;50.000;7.360;2024-01-10T10:25:30;-2.78;50.52
39401;SHT31;75540;50.000;7.360;2024-01-10T10:27:59;-2.81;50.76
39401;SHT31;75540;50.000;7.360;2024-01-10T10:30:28;-2.71;50.93
39401;SHT31;75540;50.000;7.360;2024-01-10T10:32:56;-2.29;50.27
39401;SHT31;75540;50.000;7.360;2024-01-10T10:35:24;-1.96;50.10
39401;SHT31;75540;50.000;7.360;2024-01-10T10:37:55;-1.51;48.68
39401;SHT31;75540;50.000;7.360;2024-01-10T10:40:24;-1.75;47.79
39401;SHT31;75540;50.000;7.360;2024-01-10T10:42:55;-1.90;48.62
39401;SHT31;75540;50.000;7.360;2024-01-10T10:45:24;-1.93;48.72
39401;SHT31;75540;50.000;7.360;2024-01-10T10:47:56;-1.46;47.91
39401;SHT31;75540;50.000;7.360;2024-01-10T10:50:28;-1.39;48.42
39401;SHT31;75540;50.000;7.360;2024-01-10T10:52:57;-0.87;47.66
39401;SHT31;75540;50.000;7.360;2024-01-10T10:55:27;-0.85;46.56
39401;SHT31;75540;50.000;7.360;2024-01-10T10:57:57;-1.30;48.46
39401;SHT31;75540;50.000;7.360;2024-01-10T11:00:27;-1.27;48.18
39401;SHT31;75540;50.000;7.360;2024-01-10T11:02:56;-0.84;46.84
39401;SHT31;75540;50.000;7.360;2024-01-10T11:05:25;-0.64;45.95
39401;SHT31;75540;50.000;7.360;2024-01-10T11:07:54;-0.52;46.93
39401;SHT31;75540;50.000;7.360;2024-01-10T11:10:29;-0.59;45.55
39401;SHT31;75540;50.000;7.360;2024-01-10T11:13:13;-0.23;45.44
39401;SHT31;75540;50.000;7.360;2024-01-10T11:16:13;-0.42;46.63
39401;SHT31;75540;50.000;7.360;2024-01-10T11:18:58;-0.91;47.78
39401;SHT31;75540;50.000;7.360;2024-01-10T11:21:39;-0.66;47.34
39401;SHT31;75540;50.000;7.360;2024-01-10T11:24:14;-0.73;47.87
39401;SHT31;75540;50.000;7.360;2024-01-10T11:26:44;-0.95;48.18
39401;SHT31;75540;50.000;7.360;2024-01-10T11:29:13;-1.04;48.73
39401;SHT31;75540;50.000;7.360;2024-01-10T11:31:50;-1.03;49.05
39401;SHT31;75540;50.000;7.360;2024-01-10T11:34:24;-1.44;50.07
39401;SHT31;75540;50.000;7.360;2024-01-10T11:37:11;-1.25;50.01
39401;SHT31;75540;50.000;7.360;2024-01-10T11:39:41;-0.64;48.57
39401;SHT31;75540;50.000;7.360;2024-01-10T11:42:12;-0.98;48.60
39401;SHT31;75540;50.000;7.360;2024-01-10T11:44:49;-0.36;47.87
39401;SHT31;75540;50.000;7.360;2024-01-10T11:47:19;-0.18;48.23
39401;SHT31;75540;50.000;7.360;2024-01-10T11:49:55;0.01;47.47
39401;SHT31;75540;50.000;7.360;2024-01-10T11:52:26;-0.48;48.01
39401;SHT31;75540;50.000;7.360;2024-01-10T11:54:59;-1.00;50.19
39401;SHT31;75540;50.000;7.360;2024-01-10T11:57:29;-1.05;50.12
39401;SHT31;75540;50.000;7.360;2024-01-10T11:59:59;-0.93;49.99
39401;SHT31;75540;50.000;7.360;2024-01-10T12:02:30;-1.19;51.34
39401;SHT31;75540;50.000;7.360;2024-01-10T12:04:59;-0.90;50.42
39401;SHT31;75540;50.000;7.360;2024-01-10T12:07:28;-0.98;50.94
39401;SHT31;75540;50.000;7.360;2024-01-10T12:09:56;-1.17;51.43
39401;SHT31;75540;50.000;7.360;2024-01-10T12:12:24;-1.65;52.47
39401;SHT31;75540;50.000;7.360;2024-01-10T12:14:54;-1.82;53.41
39401;SHT31;75540;50.000;7.360;2024-01-10T12:17:26;-1.93;53.68
39401;SHT31;75540;50.000;7.360;2024-01-10T12:19:55;-1.79;53.40
39401;SHT31;75540;50.000;7.360;2024-01-10T12:22:23;-1.17;53.44
39401;SHT31;75540;50.000;7.360;2024-01-10T12:24:51;-1.42;52.65
39401;SHT31;75540;50.000;7.360;2024-01-10T12:27:20;-1.27;52.87
39401;SHT31;75540;50.000;7.360;2024-01-10T12:29:49;-1.15;52.70
39401;SHT31;75540;50.000;7.360;2024-01-10T12:32:19;-1.36;52.42
39401;SHT31;75540;50.000;7.360;2024-01-10T12:34:54;-1.52;53.19
39401;SHT31;75540;50.000;7.360;2024-01-10T12:37:23;-1.36;54.02
39401;SHT31;75540;50.000;7.360;2024-01-10T12:39:51;-0.87;52.60
39401;SHT31;75540;50.000;7.360;2024-01-10T12:42:19;-1.59;53.51
39401;SHT31;75540;50.000;7.360;2024-01-10T12:44:47;-1.69;54.69
39401;SHT31;75540;50.000;7.360;2024-01-10T12:47:20;-1.00;53.61
39401;SHT31;75540;50.000;7.360;2024-01-10T12:49:49;-1.01;52.62
39401;SHT31;75540;50.000;7.360;2024-01-10T12:52:18;-0.72;52.92
39401;SHT31;75540;50.000;7.360;2024-01-10T12:54:48;-0.57;52.09
39401;SHT31;75540;50.000;7.360;2024-01-10T12:57:16;-1.04;52.86
39401;SHT31;75540;50.000;7.360;2024-01-10T12:59:44;-1.09;53.17
39401;SHT31;75540;50.000;7.360;2024-01-10T13:02:13;-1.00;53.36
39401;SHT31;75540;50.000;7.360;2024-01-10T13:04:42;-1.32;53.28
39401;SHT31;75540;50.000;7.360;2024-01-10T13:07:10;-1.42;54.27
39401;SHT31;75540;50.000;7.360;2024-01-10T13:09:39;-1.31;54.27
39401;SHT31;75540;50.000;7.360;2024-01-10T13:12:08;-0.77;55.43
39401;SHT31;75540;50.000;7.360;2024-01-10T13:14:36;-1.09;53.52
39401;SHT31;75540;50.000;7.360;2024-01-10T13:17:04;-1.38;54.82
39401;SHT31;75540;50.000;7.360;2024-01-10T13:19:32;-1.31;54.47
39401;SHT31;75540;50.000;7.360;2024-01-10T13:22:02;-1.14;55.07
39401;SHT31;75540;50.000;7.360;2024-01-10T13:24:31;-0.90;55.26
39401;SHT31;75540;50.000;7.360;2024-01-10T13:27:00;-0.97;54.75
39401;SHT31;75540;50.000;7.360;2024-01-10T13:29:28;-0.91;55.47
39401;SHT31;75540;50.000;7.360;2024-01-10T13:31:56;-0.70;54.65
39401;SHT31;75540;50.000;7.360;2024-01-10T13:34:25;-0.87;54.31
39401;SHT31;75540;50.000;7.360;2024-01-10T13:36:53;-1.21;55.13
39401;SHT31;75540;50.000;7.360;2024-01-10T13:39:23;-1.08;56.08
39401;SHT31;75540;50.000;7.360;2024-01-10T13:41:51;-1.12;56.42
39401;SHT31;75540;50.000;7.360;2024-01-10T13:44:20;-1.27;57.02
39401;SHT31;75540;50.000;7.360;2024-01-10T13:46:48;-1.19;56.60
39401;SHT31;75540;50.000;7.360;2024-01-10T13:49:17;-1.24;56.73
39401;SHT31;75540;50.000;7.360;2024-01-10T13:51:46;-0.90;56.96
39401;SHT31;75540;50.000;7.360;2024-01-10T13:54:14;-1.21;56.17
39401;SHT31;75540;50.000;7.360;2024-01-10T13:56:43;-1.36;56.38
39401;SHT31;75540;50.000;7.360;2024-01-10T13:59:12;-1.49;56.92
39401;SHT31;75540;50.000;7.360;2024-01-10T14:01:41;-1.31;56.87
39401;SHT31;75540;50.000;7.360;2024-01-10T14:04:10;-1.34;56.88
39401;SHT31;75540;50.000;7.360;2024-01-10T14:06:38;-1.19;57.41
39401;SHT31;75540;50.000;7.360;2024-01-10T14:09:06;-1.18;56.64
39401;SHT31;75540;50.000;7.360;2024-01-10T14:11:36;-1.19;56.65
39401;SHT31;75540;50.000;7.360;2024-01-10T14:14:06;-1.34;56.62
39401;SHT31;75540;50.000;7.360;2024-01-10T14:16:35;-1.05;56.41
39401;SHT31;75540;50.000;7.360;2024-01-10T14:19:03;-1.05;56.12
39401;SHT31;75540;50.000;7.360;2024-01-10T14:21:31;-1.25;56.81
39401;SHT31;75540;50.000;7.360;2024-01-10T14:24:00;-1.09;56.96
39401;SHT31;75540;50.000;7.360;2024-01-10T14:26:28;-1.25;56.66
39401;SHT31;75540;50.000;7.360;2024-01-10T14:28:56;-1.32;57.03
39401;SHT31;75540;50.000;7.360;2024-01-10T14:31:27;-1.35;57.35
39401;SHT31;75540;50.000;7.360;2024-01-10T14:33:55;-1.55;57.77
39401;SHT31;75540;50.000;7.360;2024-01-10T14:36:24;-1.44;57.77
39401;SHT31;75540;50.000;7.360;2024-01-10T14:38:52;-1.24;58.18
39401;SHT31;75540;50.000;7.360;2024-01-10T14:41:22;-1.18;58.24
39401;SHT31;75540;50.000;7.360;2024-01-10T14:43:50;-1.27;57.85
39401;SHT31;75540;50.000;7.360;2024-01-10T14:46:18;-1.34;58.05
39401;SHT31;75540;50.000;7.360;2024-01-10T14:48:49;-1.35;57.58
39401;SHT31;75540;50.000;7.360;2024-01-10T14:51:17;-1.27;58.53
39401;SHT31;75540;50.000;7.360;2024-01-10T14:53:45;-1.45;57.93
39401;SHT31;75540;50.000;7.360;2024-01-10T14:56:14;-1.87;58.15
39401;SHT31;75540;50.000;7.360;2024-01-10T14:58:42;-1.93;59.19
39401;SHT31;75540;50.000;7.360;2024-01-10T15:01:10;-1.94;59.30
39401;SHT31;75540;50.000;7.360;2024-01-10T15:03:39;-1.97;59.59
39401;SHT31;75540;50.000;7.360;2024-01-10T15:06:10;-2.11;60.23
39401;SHT31;75540;50.000;7.360;2024-01-10T15:08:40;-2.17;60.70
39401;SHT31;75540;50.000;7.360;2024-01-10T15:11:08;-2.31;61.06
39401;SHT31;75540;50.000;7.360;2024-01-10T15:13:38;-2.29;61.27
39401;SHT31;75540;50.000;7.360;2024-01-10T15:16:08;-2.44;62.06
39401;SHT31;75540;50.000;7.360;2024-01-10T15:18:36;-2.41;61.49
39401;SHT31;75540;50.000;7.360;2024-01-10T15:21:05;-2.36;62.04
39401;SHT31;75540;50.000;7.360;2024-01-10T15:23:35;-2.45;62.18
39401;SHT31;75540;50.000;7.360;2024-01-10T15:26:03;-2.47;62.23
39401;SHT31;75540;50.000;7.360;2024-01-10T15:28:32;-2.47;62.81
39401;SHT31;75540;50.000;7.360;2024-01-10T15:31:00;-2.51;62.41
39401;SHT31;75540;50.000;7.360;2024-01-10T15:33:28;-2.68;63.20
39401;SHT31;75540;50.000;7.360;2024-01-10T15:35:56;-2.79;63.50
39401;SHT31;75540;50.000;7.360;2024-01-10T15:38:25;-3.00;64.07
39401;SHT31;75540;50.000;7.360;2024-01-10T15:40:54;-3.03;64.21
39401;SHT31;75540;50.000;7.360;2024-01-10T15:43:23;-3.00;64.10